createdAt,value
2023-01-05T00:01:01.510Z,-65
2023-01-05T00:03:29.307Z,-66
2023-01-05T00:05:57.078Z,-65
2023-01-05T00:08:24.971Z,-66
2023-01-05T00:11:10.191Z,-66
2023-01-05T00:13:55.391Z,-65
2023-01-05T00:16:40.823Z,-65
2023-01-05T00:19:25.945Z,-66
2023-01-05T00:22:11.092Z,-65
2023-01-05T00:24:38.888Z,-65
2023-01-05T00:27:06.716Z,-65
2023-01-05T00:29:34.544Z,-66
2023-01-05T00:32:02.416Z,-65
2023-01-05T00:34:30.317Z,-65
2023-01-05T00:36:58.053Z,-65
2023-01-05T00:39:37.209Z,-65
2023-01-05T00:42:04.955Z,-68
2023-01-05T00:44:32.726Z,-69
2023-01-05T00:47:00.800Z,-68
2023-01-05T00:49:28.554Z,-68
2023-01-05T00:51:56.482Z,-68
2023-01-05T00:54:24.304Z,-68
2023-01-05T00:56:52.054Z,-68
2023-01-05T00:59:19.840Z,-68
2023-01-05T01:01:47.800Z,-68
2023-01-05T01:04:15.685Z,-68
2023-01-05T01:06:43.621Z,-68
2023-01-05T01:09:11.428Z,-68
2023-01-05T01:11:39.289Z,-68
2023-01-05T01:14:07.307Z,-68
2023-01-05T01:16:35.091Z,-68
2023-01-05T01:19:05.427Z,-68
2023-01-05T01:21:33.450Z,-68
2023-01-05T01:24:01.327Z,-68
2023-01-05T01:26:29.097Z,-68
2023-01-05T01:28:56.987Z,-68
2023-01-05T01:31:24.763Z,-68
2023-01-05T01:33:52.547Z,-68
2023-01-05T01:36:20.603Z,-68
2023-01-05T01:38:48.367Z,-68
2023-01-05T01:41:16.158Z,-68
2023-01-05T01:43:43.979Z,-68
2023-01-05T01:46:12.634Z,-68
2023-01-05T01:48:40.424Z,-68
2023-01-05T01:51:08.542Z,-68
2023-01-05T01:53:36.420Z,-68
2023-01-05T01:56:04.162Z,-68
2023-01-05T01:58:31.960Z,-68
2023-01-05T02:01:01.194Z,-68
2023-01-05T02:03:29.172Z,-68
2023-01-05T02:05:56.946Z,-68
2023-01-05T02:08:31.278Z,-68
2023-01-05T02:10:59.131Z,-68
2023-01-05T02:13:31.443Z,-68
2023-01-05T02:15:59.542Z,-68
2023-01-05T02:18:27.378Z,-68
2023-01-05T02:20:55.313Z,-68
2023-01-05T02:23:23.097Z,-68
2023-01-05T02:25:50.828Z,-68
2023-01-05T02:28:18.635Z,-68
2023-01-05T02:30:46.448Z,-68
2023-01-05T02:33:14.247Z,-68
2023-01-05T02:35:42.079Z,-68
2023-01-05T02:38:09.871Z,-68
2023-01-05T02:40:37.721Z,-68
2023-01-05T02:43:05.472Z,-68
2023-01-05T02:45:33.246Z,-68
2023-01-05T02:48:00.996Z,-68
2023-01-05T02:50:29.375Z,-68
2023-01-05T02:52:57.132Z,-68
2023-01-05T02:55:24.885Z,-68
2023-01-05T02:57:52.702Z,-68
2023-01-05T03:00:20.541Z,-68
2023-01-05T03:02:49.641Z,-68
2023-01-05T03:05:17.630Z,-68
2023-01-05T03:07:45.448Z,-68
2023-01-05T03:10:30.770Z,-68
2023-01-05T03:13:15.963Z,-68
2023-01-05T03:15:43.838Z,-68
2023-01-05T03:18:11.844Z,-68
2023-01-05T03:20:39.626Z,-68
2023-01-05T03:23:25.141Z,-68
2023-01-05T03:26:10.582Z,-68
2023-01-05T03:28:56.022Z,-68
2023-01-05T03:31:41.498Z,-68
2023-01-05T03:34:26.903Z,-68
2023-01-05T03:36:54.718Z,-68
2023-01-05T03:39:26.660Z,-68
2023-01-05T03:41:54.562Z,-68
2023-01-05T03:44:22.318Z,-68
2023-01-05T03:46:50.188Z,-68
2023-01-05T03:49:18.093Z,-68
2023-01-05T03:51:45.960Z,-68
2023-01-05T03:54:13.722Z,-68
2023-01-05T03:56:41.545Z,-68
2023-01-05T03:59:09.430Z,-68
2023-01-05T04:01:37.288Z,-68
2023-01-05T04:04:05.265Z,-68
2023-01-05T04:06:33.137Z,-68
2023-01-05T04:09:00.952Z,-68
2023-01-05T04:11:28.764Z,-68
2023-01-05T04:13:56.677Z,-68
2023-01-05T04:16:24.521Z,-68
2023-01-05T04:18:52.301Z,-68
2023-01-05T04:21:20.131Z,-68
2023-01-05T04:23:48.182Z,-68
2023-01-05T04:26:16.163Z,-68
2023-01-05T04:28:43.944Z,-68
2023-01-05T04:31:11.782Z,-68
2023-01-05T04:33:40.180Z,-68
2023-01-05T04:36:07.954Z,-68
2023-01-05T04:38:35.796Z,-68
2023-01-05T04:41:03.605Z,-68
2023-01-05T04:43:31.394Z,-68
2023-01-05T04:45:59.237Z,-68
2023-01-05T04:48:27.120Z,-68
2023-01-05T04:50:55.450Z,-68
2023-01-05T04:53:23.815Z,-67
2023-01-05T04:55:51.654Z,-68
2023-01-05T04:58:19.444Z,-68
2023-01-05T05:00:47.260Z,-67
2023-01-05T05:03:14.988Z,-68
2023-01-05T05:05:42.770Z,-68
2023-01-05T05:08:10.527Z,-68
2023-01-05T05:10:38.471Z,-68
2023-01-05T05:13:06.278Z,-68
2023-01-05T05:15:34.070Z,-68
2023-01-05T05:18:07.045Z,-68
2023-01-05T05:20:36.849Z,-68
2023-01-05T05:23:04.643Z,-68
2023-01-05T05:25:32.456Z,-67
2023-01-05T05:28:00.209Z,-68
2023-01-05T05:30:27.983Z,-68
2023-01-05T05:32:55.789Z,-68
2023-01-05T05:35:23.551Z,-68
2023-01-05T05:37:56.175Z,-68
2023-01-05T05:40:24.506Z,-68
2023-01-05T05:42:52.297Z,-68
2023-01-05T05:45:20.064Z,-68
2023-01-05T05:47:47.900Z,-68
2023-01-05T05:50:15.659Z,-68
2023-01-05T05:52:43.504Z,-68
2023-01-05T05:55:11.294Z,-68
2023-01-05T05:57:39.065Z,-68
2023-01-05T06:00:06.844Z,-68
2023-01-05T06:02:34.713Z,-68
2023-01-05T06:05:02.595Z,-68
2023-01-05T06:07:30.414Z,-68
2023-01-05T06:12:26.030Z,-69
2023-01-05T06:14:54.021Z,-68
2023-01-05T06:17:21.785Z,-68
2023-01-05T06:19:49.545Z,-68
2023-01-05T06:22:17.328Z,-68
2023-01-05T06:24:45.144Z,-68
2023-01-05T06:27:12.901Z,-68
2023-01-05T06:29:40.745Z,-68
2023-01-05T06:32:08.490Z,-68
2023-01-05T06:34:36.315Z,-68
2023-01-05T06:37:06.425Z,-68
2023-01-05T06:39:34.216Z,-68
2023-01-05T06:42:02.038Z,-77
2023-01-05T06:44:29.782Z,-77
2023-01-05T06:46:57.581Z,-77
2023-01-05T06:49:25.324Z,-77
2023-01-05T06:51:53.235Z,-77
2023-01-05T06:54:21.073Z,-77
2023-01-05T06:56:48.932Z,-77
2023-01-05T06:59:16.687Z,-77
2023-01-05T07:01:44.522Z,-77
2023-01-05T07:04:12.383Z,-77
2023-01-05T07:06:40.191Z,-77
2023-01-05T07:09:07.971Z,-77
2023-01-05T07:11:35.756Z,-77
2023-01-05T07:14:03.514Z,-77
2023-01-05T07:16:31.396Z,-76
2023-01-05T07:18:59.241Z,-77
2023-01-05T07:21:27.062Z,-77
2023-01-05T07:23:57.658Z,-77
2023-01-05T07:26:25.418Z,-77
2023-01-05T07:28:53.157Z,-77
2023-01-05T07:31:21.024Z,-77
2023-01-05T07:33:48.839Z,-76
2023-01-05T07:36:16.892Z,-77
2023-01-05T07:38:46.168Z,-77
2023-01-05T07:41:13.976Z,-77
2023-01-05T07:43:41.809Z,-77
2023-01-05T07:46:09.680Z,-77
2023-01-05T07:48:37.499Z,-77
2023-01-05T07:51:05.609Z,-77
2023-01-05T07:53:38.113Z,-77
2023-01-05T07:56:11.278Z,-78
2023-01-05T07:58:39.010Z,-77
2023-01-05T08:01:06.877Z,-77
2023-01-05T08:03:34.784Z,-77
2023-01-05T08:06:02.611Z,-77
2023-01-05T08:08:30.313Z,-77
2023-01-05T08:10:58.122Z,-77
2023-01-05T08:13:43.403Z,-77
2023-01-05T08:16:11.178Z,-77
2023-01-05T08:18:38.993Z,-77
2023-01-05T08:21:08.628Z,-77
2023-01-05T08:23:36.322Z,-77
2023-01-05T08:26:04.069Z,-77
2023-01-05T08:28:35.516Z,-77
2023-01-05T08:31:03.559Z,-77
2023-01-05T08:33:31.379Z,-77
2023-01-05T08:35:59.139Z,-77
2023-01-05T08:38:26.884Z,-77
2023-01-05T08:40:54.623Z,-77
2023-01-05T08:43:22.365Z,-77
2023-01-05T08:45:50.806Z,-77
2023-01-05T08:48:18.655Z,-77
2023-01-05T08:50:46.427Z,-77
2023-01-05T08:53:14.166Z,-77
2023-01-05T08:55:41.967Z,-77
2023-01-05T08:58:09.692Z,-77
2023-01-05T09:00:37.473Z,-78
2023-01-05T09:03:05.378Z,-77
2023-01-05T09:05:33.188Z,-77
2023-01-05T09:08:03.767Z,-77
2023-01-05T09:10:31.518Z,-77
2023-01-05T09:12:59.265Z,-77
2023-01-05T09:15:27.022Z,-77
2023-01-05T09:17:54.789Z,-76
2023-01-05T09:20:22.619Z,-77
2023-01-05T09:22:50.455Z,-77
2023-01-05T09:25:18.184Z,-77
2023-01-05T09:27:45.885Z,-77
2023-01-05T09:30:15.698Z,-77
2023-01-05T09:32:43.460Z,-77
2023-01-05T09:35:11.233Z,-77
2023-01-05T09:37:38.977Z,-77
2023-01-05T09:40:06.798Z,-77
2023-01-05T09:42:36.483Z,-77
2023-01-05T09:45:04.298Z,-77
2023-01-05T09:47:32.166Z,-77
2023-01-05T09:49:59.922Z,-77
2023-01-05T09:52:29.429Z,-77
2023-01-05T09:55:00.673Z,-76
2023-01-05T09:57:28.417Z,-76
2023-01-05T09:59:56.154Z,-77
2023-01-05T10:02:24.108Z,-77
2023-01-05T10:04:51.948Z,-77
2023-01-05T10:07:19.795Z,-77
2023-01-05T10:09:47.557Z,-77
2023-01-05T10:12:32.611Z,-77
2023-01-05T10:15:00.378Z,-77
2023-01-05T10:17:41.210Z,-78
2023-01-05T10:20:09.929Z,-76
2023-01-05T10:22:38.985Z,-77
2023-01-05T10:25:06.810Z,-77
2023-01-05T10:27:34.603Z,-77
2023-01-05T10:30:02.373Z,-77
2023-01-05T10:32:30.083Z,-77
2023-01-05T10:34:57.900Z,-76
2023-01-05T10:37:25.743Z,-76
2023-01-05T10:39:56.521Z,-76
2023-01-05T10:42:24.670Z,-75
2023-01-05T10:44:52.415Z,-75
2023-01-05T10:47:20.226Z,-75
2023-01-05T10:49:48.003Z,-75
2023-01-05T10:52:15.774Z,-75
2023-01-05T10:54:43.479Z,-76
2023-01-05T10:57:11.205Z,-75
2023-01-05T10:59:39.026Z,-76
2023-01-05T11:02:06.867Z,-76
2023-01-05T11:04:35.820Z,-76
2023-01-05T11:07:03.874Z,-76
2023-01-05T11:09:31.645Z,-76
2023-01-05T11:11:59.419Z,-76
2023-01-05T11:14:27.158Z,-76
2023-01-05T11:16:54.922Z,-76
2023-01-05T11:19:22.705Z,-76
2023-01-05T11:21:50.429Z,-75
2023-01-05T11:24:18.189Z,-75
2023-01-05T11:26:45.921Z,-75
2023-01-05T11:29:14.407Z,-75
2023-01-05T11:31:43.107Z,-75
2023-01-05T11:34:10.863Z,-78
2023-01-05T11:36:38.871Z,-76
2023-01-05T11:39:06.610Z,-76
2023-01-05T11:41:34.995Z,-76
2023-01-05T11:44:03.284Z,-76
2023-01-05T11:46:31.172Z,-75
2023-01-05T11:48:59.034Z,-76
2023-01-05T11:51:27.852Z,-76
2023-01-05T11:53:55.648Z,-76
2023-01-05T11:56:23.349Z,-76
2023-01-05T11:58:51.372Z,-76
2023-01-05T12:01:21.772Z,-76
2023-01-05T12:03:52.921Z,-77
2023-01-05T12:06:23.185Z,-75
2023-01-05T12:08:54.151Z,-75
2023-01-05T12:11:22.103Z,-75
2023-01-05T12:13:51.297Z,-75
2023-01-05T12:16:19.019Z,-76
2023-01-05T12:18:47.164Z,-77
2023-01-05T12:21:15.051Z,-76
2023-01-05T12:23:42.872Z,-76
2023-01-05T12:26:10.651Z,-77
2023-01-05T12:28:42.294Z,-77
2023-01-05T12:34:02.275Z,-76
2023-01-05T12:36:32.066Z,-76
2023-01-05T12:38:59.782Z,-76
2023-01-05T12:41:27.529Z,-78
2023-01-05T12:43:55.288Z,-77
2023-01-05T12:46:23.525Z,-77
2023-01-05T12:48:51.747Z,-77
2023-01-05T12:51:19.517Z,-77
2023-01-05T12:53:47.458Z,-77
2023-01-05T12:56:15.271Z,-77
2023-01-05T12:58:43.094Z,-77
2023-01-05T13:01:10.970Z,-77
2023-01-05T13:03:39.169Z,-77
2023-01-05T13:06:10.028Z,-77
2023-01-05T13:08:37.850Z,-77
2023-01-05T13:11:05.710Z,-77
2023-01-05T13:13:39.591Z,-77
2023-01-05T13:16:07.402Z,-77
2023-01-05T13:18:35.175Z,-76
2023-01-05T13:21:03.051Z,-77
2023-01-05T13:23:30.777Z,-77
2023-01-05T13:25:58.506Z,-77
2023-01-05T13:28:28.708Z,-77
2023-01-05T13:30:58.677Z,-77
2023-01-05T13:33:26.452Z,-77
2023-01-05T13:35:54.213Z,-77
2023-01-05T13:38:21.941Z,-77
2023-01-05T13:40:49.716Z,-77
2023-01-05T13:43:17.475Z,-77
2023-01-05T13:45:45.211Z,-77
2023-01-05T13:48:13.266Z,-77
2023-01-05T13:50:41.080Z,-77
2023-01-05T13:53:08.761Z,-77
2023-01-05T13:55:36.512Z,-77
2023-01-05T13:58:04.394Z,-77
2023-01-05T14:00:32.183Z,-77
2023-01-05T14:03:00.258Z,-77
2023-01-05T14:05:27.954Z,-77
2023-01-05T14:07:55.758Z,-77
2023-01-05T14:10:23.456Z,-77
2023-01-05T14:12:51.188Z,-77
2023-01-05T14:15:18.890Z,-77
2023-01-05T14:17:46.658Z,-77
2023-01-05T14:20:14.328Z,-76
2023-01-05T14:22:42.466Z,-75
2023-01-05T14:25:10.207Z,-76
2023-01-05T14:27:37.931Z,-75
2023-01-05T14:30:05.673Z,-76
2023-01-05T14:32:33.449Z,-76
2023-01-05T14:35:01.242Z,-76
2023-01-05T14:37:28.985Z,-75
2023-01-05T14:40:04.128Z,-76
2023-01-05T14:42:36.910Z,-75
2023-01-05T14:45:06.770Z,-76
2023-01-05T14:47:34.645Z,-76
2023-01-05T14:50:04.973Z,-76
2023-01-05T14:52:32.673Z,-76
2023-01-05T14:55:05.863Z,-76
2023-01-05T14:57:40.411Z,-76
2023-01-05T15:00:08.735Z,-77
2023-01-05T15:02:36.624Z,-77
2023-01-05T15:05:04.743Z,-77
2023-01-05T15:07:32.473Z,-76
2023-01-05T15:10:00.249Z,-76
2023-01-05T15:12:27.984Z,-77
2023-01-05T15:14:55.741Z,-77
2023-01-05T15:17:23.485Z,-77
2023-01-05T15:19:51.213Z,-76
2023-01-05T15:22:37.159Z,-77
2023-01-05T15:25:05.627Z,-77
2023-01-05T15:27:33.525Z,-76
2023-01-05T15:30:02.246Z,-77
2023-01-05T15:32:31.214Z,-77
2023-01-05T15:34:58.980Z,-77
2023-01-05T15:37:26.752Z,-76
2023-01-05T15:39:54.550Z,-77
2023-01-05T15:42:23.336Z,-77
2023-01-05T15:44:51.987Z,-76
2023-01-05T15:47:19.724Z,-76
2023-01-05T15:49:47.431Z,-76
2023-01-05T15:52:15.185Z,-76
2023-01-05T15:54:42.885Z,-76
2023-01-05T15:57:10.639Z,-76
2023-01-05T15:59:38.375Z,-76
2023-01-05T16:02:06.135Z,-76
2023-01-05T16:04:34.311Z,-77
2023-01-05T16:07:02.300Z,-75
2023-01-05T16:09:30.105Z,-77
2023-01-05T16:11:58.303Z,-77
2023-01-05T16:14:28.744Z,-76
2023-01-05T16:16:56.590Z,-77
2023-01-05T16:19:24.343Z,-75
2023-01-05T16:21:52.137Z,-75
2023-01-05T16:24:19.853Z,-75
2023-01-05T16:26:47.576Z,-75
2023-01-05T16:29:15.289Z,-75
2023-01-05T16:31:44.951Z,-75
2023-01-05T16:34:12.700Z,-75
2023-01-05T16:36:40.358Z,-76
2023-01-05T16:39:08.120Z,-76
2023-01-05T16:41:55.804Z,-76
2023-01-05T16:44:23.539Z,-76
2023-01-05T16:46:51.268Z,-76
2023-01-05T16:49:18.993Z,-76
2023-01-05T16:51:47.657Z,-76
2023-01-05T16:54:15.567Z,-80
2023-01-05T16:56:43.259Z,-77
2023-01-05T16:59:11.097Z,-77
2023-01-05T17:01:38.846Z,-76
2023-01-05T17:04:06.607Z,-75
2023-01-05T17:06:34.371Z,-75
2023-01-05T17:09:02.191Z,-77
2023-01-05T17:11:30.062Z,-76
2023-01-05T17:13:57.847Z,-77
2023-01-05T17:16:25.790Z,-77
2023-01-05T17:18:53.556Z,-76
2023-01-05T17:21:21.380Z,-77
2023-01-05T17:23:49.147Z,-76
2023-01-05T17:26:17.000Z,-76
2023-01-05T17:28:44.904Z,-76
2023-01-05T17:33:45.311Z,-78
2023-01-05T17:36:13.009Z,-78
2023-01-05T17:38:40.726Z,-76
2023-01-05T17:41:08.492Z,-76
2023-01-05T17:43:36.237Z,-76
2023-01-05T17:46:04.113Z,-76
2023-01-05T17:48:31.887Z,-76
2023-01-05T17:51:00.406Z,-76
2023-01-05T17:53:28.210Z,-76
2023-01-05T17:55:55.967Z,-76
2023-01-05T17:58:26.489Z,-76
2023-01-05T18:00:55.119Z,-76
2023-01-05T18:03:22.935Z,-76
2023-01-05T18:05:51.353Z,-76
2023-01-05T18:08:19.290Z,-76
2023-01-05T18:10:47.697Z,-77
2023-01-05T18:13:18.083Z,-77
2023-01-05T18:15:50.787Z,-77
2023-01-05T18:18:20.594Z,-77
2023-01-05T18:20:51.067Z,-77
2023-01-05T18:23:18.842Z,-77
2023-01-05T18:25:46.679Z,-77
2023-01-05T18:28:14.410Z,-77
2023-01-05T18:30:42.293Z,-77
2023-01-05T18:35:43.660Z,-77
2023-01-05T18:38:11.769Z,-77
2023-01-05T18:40:39.559Z,-77
2023-01-05T18:43:07.455Z,-75
2023-01-05T18:45:39.743Z,-75
2023-01-05T18:48:07.969Z,-76
2023-01-05T18:50:36.591Z,-76
2023-01-05T18:53:04.469Z,-76
2023-01-05T18:55:34.313Z,-76
2023-01-05T18:58:02.154Z,-75
2023-01-05T19:00:30.940Z,-75
2023-01-05T19:02:58.811Z,-75
2023-01-05T19:05:26.573Z,-76
2023-01-05T19:07:55.609Z,-75
2023-01-05T19:10:23.395Z,-75
2023-01-05T19:12:51.139Z,-76
2023-01-05T19:15:18.955Z,-75
2023-01-05T19:17:46.740Z,-75
2023-01-05T19:20:14.648Z,-75
2023-01-05T19:22:45.084Z,-75
2023-01-05T19:25:13.337Z,-75
2023-01-05T19:27:41.178Z,-75
2023-01-05T19:30:09.012Z,-76
2023-01-05T19:32:37.169Z,-76
2023-01-05T19:35:06.155Z,-77
2023-01-05T19:37:33.942Z,-79
2023-01-05T19:40:02.751Z,-79
2023-01-05T19:42:30.699Z,-78
2023-01-05T19:44:58.625Z,-78
2023-01-05T19:47:26.473Z,-78
2023-01-05T19:49:54.259Z,-78
2023-01-05T19:52:22.058Z,-77
2023-01-05T19:54:49.860Z,-76
2023-01-05T19:57:17.695Z,-76
2023-01-05T19:59:45.503Z,-76
2023-01-05T20:02:13.290Z,-76
2023-01-05T20:04:42.534Z,-76
2023-01-05T20:07:10.318Z,-76
2023-01-05T20:09:38.185Z,-76
2023-01-05T20:12:14.388Z,-76
2023-01-05T20:14:46.965Z,-76
2023-01-05T20:17:14.733Z,-76
2023-01-05T20:19:42.587Z,-76
2023-01-05T20:22:13.797Z,-76
2023-01-05T20:24:42.181Z,-77
2023-01-05T20:27:09.951Z,-76
2023-01-05T20:29:37.739Z,-76
2023-01-05T20:32:05.549Z,-77
2023-01-05T20:34:34.967Z,-76
2023-01-05T20:37:04.077Z,-76
2023-01-05T20:39:31.923Z,-78
2023-01-05T20:42:04.826Z,-76
2023-01-05T20:44:32.995Z,-76
2023-01-05T20:47:02.294Z,-76
2023-01-05T20:49:30.098Z,-76
2023-01-05T20:51:57.948Z,-76
2023-01-05T20:54:26.900Z,-76
2023-01-05T20:56:54.877Z,-76
2023-01-05T20:59:23.361Z,-78
2023-01-05T21:01:51.457Z,-76
2023-01-05T21:04:19.261Z,-76
2023-01-05T21:06:47.072Z,-77
2023-01-05T21:09:14.924Z,-78
2023-01-05T21:11:42.725Z,-76
2023-01-05T21:14:12.411Z,-76
2023-01-05T21:16:40.460Z,-76
2023-01-05T21:19:08.761Z,-78
2023-01-05T21:21:37.488Z,-76
2023-01-05T21:24:07.816Z,-79
2023-01-05T21:26:35.682Z,-77
2023-01-05T21:29:05.700Z,-79
2023-01-05T21:31:33.487Z,-76
2023-01-05T21:34:01.469Z,-77
2023-01-05T21:36:29.271Z,-76
2023-01-05T21:39:00.962Z,-76
2023-01-05T21:41:48.576Z,-77
2023-01-05T21:44:16.312Z,-78
2023-01-05T21:46:44.120Z,-77
2023-01-05T21:49:11.967Z,-76
2023-01-05T21:51:57.216Z,-76
2023-01-05T21:54:42.448Z,-76
2023-01-05T21:57:10.413Z,-76
2023-01-05T21:59:38.189Z,-76
2023-01-05T22:02:05.996Z,-76
2023-01-05T22:04:33.753Z,-76
2023-01-05T22:07:02.723Z,-76
2023-01-05T22:09:30.529Z,-78
2023-01-05T22:11:58.245Z,-78
2023-01-05T22:14:25.967Z,-78
2023-01-05T22:16:53.806Z,-78
2023-01-05T22:19:21.538Z,-77
2023-01-05T22:21:49.479Z,-78
2023-01-05T22:24:17.208Z,-76
2023-01-05T22:26:45.070Z,-76
2023-01-05T22:29:12.804Z,-77
2023-01-05T22:31:40.666Z,-77
2023-01-05T22:34:08.408Z,-77
2023-01-05T22:36:36.119Z,-78
2023-01-05T22:39:03.993Z,-78
2023-01-05T22:41:31.758Z,-76
2023-01-05T22:43:59.593Z,-76
2023-01-05T22:46:27.348Z,-76
2023-01-05T22:48:55.093Z,-76
2023-01-05T22:51:22.784Z,-76
2023-01-05T22:53:50.576Z,-78
2023-01-05T22:56:18.319Z,-76
2023-01-05T22:58:46.034Z,-76
2023-01-05T23:01:13.817Z,-76
2023-01-05T23:03:41.587Z,-77
2023-01-05T23:06:09.371Z,-77
2023-01-05T23:08:38.219Z,-77
2023-01-05T23:11:05.990Z,-76
2023-01-05T23:13:33.768Z,-77
2023-01-05T23:16:01.467Z,-77
2023-01-05T23:18:29.271Z,-78
2023-01-05T23:20:57.026Z,-76
2023-01-05T23:23:24.766Z,-76
2023-01-05T23:25:52.609Z,-77
2023-01-05T23:28:20.506Z,-76
2023-01-05T23:30:48.265Z,-76
2023-01-05T23:33:16.151Z,-76
2023-01-05T23:35:43.944Z,-77
2023-01-05T23:38:11.744Z,-76
2023-01-05T23:40:39.511Z,-76
2023-01-05T23:43:07.465Z,-76
2023-01-05T23:45:35.267Z,-77
2023-01-05T23:48:03.055Z,-77
2023-01-05T23:50:30.822Z,-77
2023-01-05T23:52:58.580Z,-77
2023-01-05T23:55:26.442Z,-76
2023-01-05T23:57:54.132Z,-77
